Wilmar, Arkansas
Current Conditions -  °F | °C
As of 10:53 AM on Friday 28 Nov 2014 (Local Time) from KLLQ Reporting Station
Clear Clear  
Wind Chill: 50°   Ceiling: Unl
Heat Index: 50°   Visibility: 10mi
Dew Point: 33°   Wind: 8mph
Humidity: 52%   Direction: 190°S
Pressure: 30.35"   Gusts: NA
Location:  33.63°N, 91.93°W
Report Text: KLLQ 281653Z AUTO 19007KT 10SM CLR 10/01 A3035 RMK AO2 SLP277 T01000006
Loading
Personal Weather Stations






























Interactive Weather Map New forecast layout! Learn more

10-Day Weather Forecast

Advertisements
Track Severe Weather on mobile